createdAt,value
2023-02-21T00:02:04.944Z,15.43
2023-02-21T00:04:51.051Z,12.70
2023-02-21T00:07:37.829Z,13.75
2023-02-21T00:10:24.510Z,12.77
2023-02-21T00:13:11.976Z,14.27
2023-02-21T00:15:57.949Z,12.73
2023-02-21T00:18:43.893Z,13.85
2023-02-21T00:21:30.172Z,12.15
2023-02-21T00:24:15.899Z,11.02
2023-02-21T00:27:01.628Z,15.60
2023-02-21T00:29:48.671Z,10.55
2023-02-21T00:32:34.590Z,12.95
2023-02-21T00:35:20.530Z,14.65
2023-02-21T00:38:08.700Z,14.25
2023-02-21T00:40:54.736Z,12.05
2023-02-21T00:43:47.074Z,10.88
2023-02-21T00:46:34.775Z,14.75
2023-02-21T00:49:21.405Z,12.20
2023-02-21T00:52:07.136Z,10.07
2023-02-21T00:54:53.684Z,9.95
2023-02-21T00:57:39.903Z,10.88
2023-02-21T01:00:32.304Z,13.65
2023-02-21T01:03:19.724Z,11.57
2023-02-21T01:06:05.907Z,10.15
2023-02-21T01:08:51.838Z,10.05
2023-02-21T01:11:40.219Z,11.73
2023-02-21T01:14:28.389Z,11.75
2023-02-21T01:17:14.890Z,10.73
2023-02-21T01:20:01.955Z,11.70
2023-02-21T01:22:48.227Z,10.18
2023-02-21T01:25:34.580Z,12.13
2023-02-21T01:28:20.692Z,10.88
2023-02-21T01:31:06.749Z,11.02
2023-02-21T01:33:57.382Z,12.52
2023-02-21T01:36:45.642Z,12.13
2023-02-21T01:39:31.889Z,11.80
2023-02-21T01:42:18.571Z,14.02
2023-02-21T01:45:05.529Z,12.82
2023-02-21T01:47:51.864Z,12.57
2023-02-21T01:50:41.262Z,15.25
2023-02-21T01:53:32.465Z,15.23
2023-02-21T01:56:20.014Z,11.35
2023-02-21T01:59:08.912Z,12.15
2023-02-21T02:02:08.918Z,14.23
2023-02-21T02:04:55.529Z,13.88
2023-02-21T02:07:41.566Z,10.30
2023-02-21T02:10:30.411Z,11.73
2023-02-21T02:13:16.902Z,12.43
2023-02-21T02:15:53.904Z,12.30
2023-02-21T02:18:50.294Z,12.15
2023-02-21T02:21:51.947Z,11.93
2023-02-21T02:24:37.274Z,10.23
2023-02-21T02:27:41.785Z,12.57
2023-02-21T02:30:41.900Z,12.05
2023-02-21T02:33:36.952Z,11.00
2023-02-21T02:36:09.807Z,11.65
2023-02-21T02:38:46.356Z,13.65
2023-02-21T02:41:20.084Z,15.32
2023-02-21T02:43:55.510Z,15.25
2023-02-21T02:46:28.484Z,15.90
2023-02-21T02:49:01.012Z,12.15
2023-02-21T02:51:33.961Z,12.50
2023-02-21T02:54:02.895Z,12.25
2023-02-21T02:56:31.383Z,13.68
2023-02-21T02:59:06.224Z,13.32
2023-02-21T03:01:58.142Z,12.10
2023-02-21T03:04:46.060Z,16.05
2023-02-21T03:07:22.553Z,12.35
2023-02-21T03:10:01.075Z,12.95
2023-02-21T03:12:36.978Z,13.45
2023-02-21T03:15:11.229Z,13.50
2023-02-21T03:17:44.722Z,15.23
2023-02-21T03:20:15.464Z,12.95
2023-02-21T03:22:46.896Z,19.67
2023-02-21T03:25:17.209Z,17.30
2023-02-21T03:27:45.992Z,13.45
2023-02-21T03:30:15.907Z,16.02
2023-02-21T03:32:48.738Z,14.25
2023-02-21T03:35:17.779Z,12.98
2023-02-21T03:37:50.079Z,11.83
2023-02-21T03:40:23.735Z,10.20
2023-02-21T03:42:52.824Z,12.30
2023-02-21T03:45:21.505Z,11.00
2023-02-21T03:47:49.943Z,12.43
2023-02-21T03:50:18.776Z,10.95
2023-02-21T03:52:48.946Z,10.80
2023-02-21T03:55:17.696Z,13.52
2023-02-21T03:57:46.249Z,10.35
2023-02-21T04:00:16.080Z,12.48
2023-02-21T04:05:12.985Z,11.20
2023-02-21T04:07:41.473Z,13.43
2023-02-21T04:10:11.424Z,11.65
2023-02-21T04:12:39.831Z,12.57
2023-02-21T04:15:09.049Z,11.27
2023-02-21T04:17:37.750Z,12.80
2023-02-21T04:20:06.940Z,15.63
2023-02-21T04:22:35.410Z,12.75
2023-02-21T04:25:03.868Z,11.25
2023-02-21T04:27:34.793Z,11.07
2023-02-21T04:30:03.263Z,10.73
2023-02-21T04:32:31.892Z,12.85
2023-02-21T04:35:00.359Z,11.93
2023-02-21T04:37:28.791Z,10.68
2023-02-21T04:39:57.278Z,9.73
2023-02-21T04:42:25.831Z,11.00
2023-02-21T04:45:00.322Z,12.30
2023-02-21T04:47:29.057Z,12.60
2023-02-21T04:49:58.533Z,10.73
2023-02-21T04:52:27.126Z,9.50
2023-02-21T04:54:55.602Z,14.27
2023-02-21T04:57:24.187Z,11.35
2023-02-21T04:59:59.887Z,11.90
2023-02-21T05:02:29.192Z,13.40
2023-02-21T05:04:57.705Z,13.65
2023-02-21T05:07:26.224Z,12.55
2023-02-21T05:09:54.637Z,13.10
2023-02-21T05:12:23.089Z,13.73
2023-02-21T05:14:51.539Z,13.75
2023-02-21T05:17:21.267Z,13.45
2023-02-21T05:19:50.187Z,14.98
2023-02-21T05:22:20.378Z,17.38
2023-02-21T05:24:49.257Z,15.88
2023-02-21T05:27:19.533Z,14.15
2023-02-21T05:29:49.074Z,15.68
2023-02-21T05:32:18.455Z,14.90
2023-02-21T05:34:48.610Z,14.82
2023-02-21T05:37:21.113Z,16.88
2023-02-21T05:39:49.855Z,16.60
2023-02-21T05:42:18.514Z,20.52
2023-02-21T05:44:47.058Z,14.35
2023-02-21T05:47:15.841Z,17.48
2023-02-21T05:49:45.198Z,16.63
2023-02-21T05:52:16.965Z,20.95
2023-02-21T05:54:45.548Z,17.50
2023-02-21T05:57:14.024Z,17.60
2023-02-21T05:59:43.571Z,14.35
2023-02-21T06:02:12.327Z,16.55
2023-02-21T06:04:40.878Z,18.20
2023-02-21T06:07:09.772Z,19.67
2023-02-21T06:09:39.577Z,20.00
2023-02-21T06:12:08.224Z,19.95
2023-02-21T06:14:36.640Z,19.75
2023-02-21T06:17:05.143Z,19.30
2023-02-21T06:19:33.643Z,18.77
2023-02-21T06:22:03.973Z,17.50
2023-02-21T06:24:32.329Z,16.15
2023-02-21T06:27:02.160Z,20.25
2023-02-21T06:31:59.677Z,16.83
2023-02-21T06:34:28.635Z,33.00
2023-02-21T06:36:57.194Z,20.88
2023-02-21T06:39:25.878Z,20.17
2023-02-21T06:41:54.257Z,17.88
2023-02-21T06:44:24.130Z,17.70
2023-02-21T06:49:23.076Z,18.38
2023-02-21T06:51:51.562Z,17.60
2023-02-21T06:54:20.237Z,18.70
2023-02-21T06:56:48.887Z,21.65
2023-02-21T06:59:17.343Z,17.35
2023-02-21T07:01:47.204Z,23.13
2023-02-21T07:06:44.165Z,19.15
2023-02-21T07:09:13.324Z,21.40
2023-02-21T07:11:42.082Z,23.58
2023-02-21T07:14:11.918Z,20.48
2023-02-21T07:19:10.288Z,19.70
2023-02-21T07:21:41.261Z,20.77
2023-02-21T07:24:09.678Z,20.33
2023-02-21T07:26:38.394Z,24.45
2023-02-21T07:29:07.314Z,20.70
2023-02-21T07:31:35.838Z,22.23
2023-02-21T07:34:04.315Z,18.98
2023-02-21T07:36:34.088Z,18.63
2023-02-21T07:39:02.895Z,25.15
2023-02-21T07:41:31.302Z,21.30
2023-02-21T07:43:59.727Z,20.13
2023-02-21T07:46:29.609Z,19.08
2023-02-21T07:51:29.943Z,18.25
2023-02-21T07:53:59.784Z,15.57
2023-02-21T07:58:56.379Z,18.77
2023-02-21T08:01:26.636Z,19.40
2023-02-21T08:03:55.214Z,15.05
2023-02-21T08:06:23.692Z,15.85
2023-02-21T08:08:52.119Z,15.90
2023-02-21T08:11:21.909Z,16.33
2023-02-21T08:16:18.579Z,16.05
2023-02-21T08:18:50.657Z,17.75
2023-02-21T08:21:19.183Z,18.13
2023-02-21T08:23:47.569Z,17.15
2023-02-21T08:26:15.963Z,16.65
2023-02-21T08:28:46.178Z,17.02
2023-02-21T08:31:15.649Z,18.92
2023-02-21T08:33:45.047Z,18.73
2023-02-21T08:36:13.569Z,20.58
2023-02-21T08:38:41.989Z,15.93
2023-02-21T08:41:10.882Z,17.02
2023-02-21T08:43:39.354Z,23.85
2023-02-21T08:46:09.883Z,17.73
2023-02-21T08:48:38.280Z,20.52
2023-02-21T08:51:07.192Z,20.80
2023-02-21T08:53:35.583Z,18.77
2023-02-21T08:56:04.102Z,18.73
2023-02-21T08:58:32.802Z,22.52
2023-02-21T09:01:01.227Z,25.40
2023-02-21T09:03:30.997Z,20.33
2023-02-21T09:05:59.562Z,17.05
2023-02-21T09:08:30.789Z,19.98
2023-02-21T09:11:01.228Z,18.10
2023-02-21T09:13:30.066Z,19.58
2023-02-21T09:15:58.706Z,18.02
2023-02-21T09:18:27.913Z,18.90
2023-02-21T09:20:59.233Z,20.45
2023-02-21T09:23:29.823Z,21.25
2023-02-21T09:25:58.465Z,23.90
2023-02-21T09:28:26.976Z,23.38
2023-02-21T09:30:55.406Z,21.85
2023-02-21T09:33:25.266Z,20.02
2023-02-21T09:35:54.758Z,20.35
2023-02-21T09:38:24.689Z,21.25
2023-02-21T09:43:32.560Z,21.67
2023-02-21T09:46:05.303Z,23.25
2023-02-21T09:48:34.397Z,22.00
2023-02-21T09:51:06.218Z,23.13
2023-02-21T09:53:40.142Z,22.85
2023-02-21T09:56:14.050Z,24.25
2023-02-21T09:58:46.085Z,28.30
2023-02-21T10:01:26.000Z,25.27
2023-02-21T10:06:39.867Z,29.83
2023-02-21T10:09:17.870Z,30.35
2023-02-21T10:11:59.377Z,28.88
2023-02-21T10:14:35.395Z,34.38
2023-02-21T10:17:14.030Z,33.28
2023-02-21T10:19:45.853Z,34.33
2023-02-21T10:22:20.500Z,30.77
2023-02-21T10:24:51.240Z,34.88
2023-02-21T10:27:21.285Z,29.58
2023-02-21T10:29:55.459Z,30.25
2023-02-21T10:32:25.447Z,32.85
2023-02-21T10:34:55.469Z,30.48
2023-02-21T10:37:39.144Z,27.08
2023-02-21T10:40:25.751Z,25.55
2023-02-21T10:42:57.876Z,29.30
2023-02-21T10:45:36.306Z,27.80
2023-02-21T10:48:07.241Z,27.10
2023-02-21T10:50:41.851Z,26.92
2023-02-21T10:53:22.993Z,32.67
2023-02-21T10:56:22.313Z,29.08
2023-02-21T10:58:53.057Z,24.13
2023-02-21T11:01:25.483Z,29.65
2023-02-21T11:03:56.753Z,27.15
2023-02-21T11:06:34.951Z,28.85
2023-02-21T11:09:24.080Z,34.65
2023-02-21T11:12:03.132Z,25.85
2023-02-21T11:14:33.286Z,31.60
2023-02-21T11:17:18.294Z,29.90
2023-02-21T11:19:52.747Z,22.98
2023-02-21T11:22:25.002Z,26.67
2023-02-21T11:25:06.439Z,26.55
2023-02-21T11:27:37.877Z,26.60
2023-02-21T11:30:15.310Z,25.83
2023-02-21T11:32:49.377Z,25.70
2023-02-21T11:35:25.783Z,26.25
2023-02-21T11:37:56.737Z,26.95
2023-02-21T11:40:28.215Z,22.90
2023-02-21T11:43:24.895Z,23.65
2023-02-21T11:46:11.933Z,25.23
2023-02-21T11:48:48.957Z,25.30
2023-02-21T11:51:28.218Z,27.85
2023-02-21T11:53:57.037Z,21.98
2023-02-21T11:56:43.414Z,26.75
2023-02-21T11:59:31.020Z,23.20
2023-02-21T12:02:22.545Z,25.77
2023-02-21T12:05:03.260Z,22.73
2023-02-21T12:07:41.160Z,22.80
2023-02-21T12:10:35.075Z,25.05
2023-02-21T12:13:13.855Z,22.77
2023-02-21T12:15:54.669Z,21.65
2023-02-21T12:18:40.429Z,19.65
2023-02-21T12:21:37.023Z,19.90
2023-02-21T12:24:18.511Z,21.88
2023-02-21T12:26:55.416Z,23.63
2023-02-21T12:29:42.714Z,22.33
2023-02-21T12:32:28.901Z,20.58
2023-02-21T12:35:15.592Z,19.17
2023-02-21T12:37:50.654Z,17.20
2023-02-21T12:40:29.715Z,20.63
2023-02-21T12:43:12.813Z,21.50
2023-02-21T12:45:57.883Z,19.63
2023-02-21T12:48:35.898Z,21.50
2023-02-21T12:51:08.066Z,22.75
2023-02-21T12:53:44.736Z,19.92
2023-02-21T12:56:19.510Z,20.02
2023-02-21T12:58:52.322Z,19.73
2023-02-21T13:01:26.140Z,20.15
2023-02-21T13:04:07.417Z,19.35
2023-02-21T13:06:39.602Z,19.00
2023-02-21T13:09:16.232Z,19.23
2023-02-21T13:11:51.065Z,18.45
2023-02-21T13:14:27.991Z,17.85
2023-02-21T13:16:56.555Z,16.35
2023-02-21T13:19:29.118Z,21.98
2023-02-21T13:22:54.313Z,17.58
2023-02-21T13:25:30.753Z,18.30
2023-02-21T13:28:05.467Z,21.77
2023-02-21T13:30:41.194Z,20.00
2023-02-21T13:33:25.925Z,23.50
2023-02-21T13:35:59.444Z,16.38
2023-02-21T13:38:30.625Z,20.42
2023-02-21T13:41:09.281Z,16.58
2023-02-21T13:43:46.227Z,19.35
2023-02-21T13:47:02.545Z,18.95
2023-02-21T13:49:48.064Z,24.08
2023-02-21T13:52:44.364Z,22.52
2023-02-21T13:55:36.185Z,19.95
2023-02-21T13:58:46.854Z,16.63
2023-02-21T14:01:38.013Z,16.95
2023-02-21T14:04:39.551Z,18.08
2023-02-21T14:07:07.999Z,19.50
2023-02-21T14:09:42.036Z,17.85
2023-02-21T14:12:15.826Z,20.92
2023-02-21T14:14:47.207Z,17.05
2023-02-21T14:17:17.151Z,19.27
2023-02-21T14:19:51.636Z,15.25
2023-02-21T14:22:28.076Z,18.98
2023-02-21T14:25:10.708Z,18.25
2023-02-21T14:27:40.172Z,20.52
2023-02-21T14:30:30.180Z,19.30
2023-02-21T14:33:22.968Z,21.95
2023-02-21T14:36:00.849Z,21.63
2023-02-21T14:38:33.066Z,20.05
2023-02-21T14:41:15.841Z,22.98
2023-02-21T14:44:12.918Z,20.55
2023-02-21T14:47:04.419Z,22.95
2023-02-21T14:49:56.841Z,20.00
2023-02-21T14:52:58.692Z,24.13
2023-02-21T14:56:02.295Z,22.67
2023-02-21T14:59:09.081Z,27.25
2023-02-21T15:01:54.795Z,20.80
2023-02-21T15:04:33.928Z,22.17
2023-02-21T15:07:12.416Z,20.67
2023-02-21T15:09:40.966Z,23.17
2023-02-21T15:12:16.146Z,19.88
2023-02-21T15:14:51.661Z,18.90
2023-02-21T15:17:23.014Z,25.42
2023-02-21T15:20:06.708Z,18.75
2023-02-21T15:22:35.188Z,20.08
2023-02-21T15:25:22.318Z,23.80
2023-02-21T15:28:06.730Z,18.42
2023-02-21T15:30:42.125Z,19.85
2023-02-21T15:33:17.182Z,20.95
2023-02-21T15:35:49.867Z,19.85
2023-02-21T15:38:24.297Z,18.80
2023-02-21T15:40:56.722Z,22.77
2023-02-21T15:43:35.468Z,20.77
2023-02-21T15:46:08.400Z,19.90
2023-02-21T15:48:37.430Z,22.73
2023-02-21T15:51:08.958Z,23.23
2023-02-21T15:53:37.749Z,27.85
2023-02-21T15:56:24.730Z,23.95
2023-02-21T15:59:14.640Z,27.95
2023-02-21T16:06:57.630Z,27.17
2023-02-21T16:09:29.973Z,28.70
2023-02-21T16:12:02.602Z,24.42
2023-02-21T16:14:38.763Z,25.75
2023-02-21T16:17:17.982Z,28.77
2023-02-21T16:19:52.238Z,24.48
2023-02-21T16:22:31.027Z,32.20
2023-02-21T16:25:21.951Z,33.20
2023-02-21T16:27:52.614Z,31.83
2023-02-21T16:30:23.590Z,32.92
2023-02-21T16:32:55.772Z,36.67
2023-02-21T16:35:26.551Z,37.85
2023-02-21T16:37:57.028Z,34.53
2023-02-21T16:40:29.126Z,37.13
2023-02-21T16:43:00.274Z,44.47
2023-02-21T16:45:29.329Z,37.10
2023-02-21T16:48:01.495Z,43.00
2023-02-21T16:50:32.285Z,43.58
2023-02-21T16:53:01.695Z,41.33
2023-02-21T16:55:30.832Z,46.28
2023-02-21T16:58:01.101Z,46.60
2023-02-21T17:00:31.584Z,40.78
2023-02-21T17:03:02.021Z,43.13
2023-02-21T17:05:30.697Z,45.33
2023-02-21T17:07:59.467Z,50.33
2023-02-21T17:10:28.192Z,40.15
2023-02-21T17:12:56.619Z,45.50
2023-02-21T17:15:26.990Z,46.22
2023-02-21T17:17:55.440Z,47.97
2023-02-21T17:20:25.887Z,52.00
2023-02-21T17:22:54.915Z,82.80
2023-02-21T17:25:24.094Z,65.67
2023-02-21T17:27:53.183Z,66.30
2023-02-21T17:30:24.704Z,56.97
2023-02-21T17:32:53.847Z,57.33
2023-02-21T17:35:24.580Z,52.30
2023-02-21T17:37:54.382Z,49.63
2023-02-21T17:40:24.165Z,50.08
2023-02-21T17:42:52.627Z,51.17
2023-02-21T17:45:22.244Z,46.90
2023-02-21T17:47:52.151Z,46.13
2023-02-21T17:52:49.163Z,47.45
2023-02-21T17:55:22.928Z,50.63
2023-02-21T17:57:51.329Z,46.78
2023-02-21T18:00:23.132Z,47.95
2023-02-21T18:02:52.112Z,44.78
2023-02-21T18:05:21.319Z,44.17
2023-02-21T18:07:50.888Z,46.40
2023-02-21T18:10:22.621Z,91.97
2023-02-21T18:12:51.748Z,52.85
2023-02-21T18:15:21.909Z,43.13
2023-02-21T18:17:50.347Z,43.42
2023-02-21T18:20:19.327Z,44.90
2023-02-21T18:22:48.717Z,45.70
2023-02-21T18:25:21.152Z,43.80
2023-02-21T18:27:51.117Z,44.90
2023-02-21T18:30:21.759Z,52.38
2023-02-21T18:32:50.884Z,49.30
2023-02-21T18:35:20.303Z,63.60
2023-02-21T18:37:49.616Z,47.42
2023-02-21T18:40:19.061Z,51.90
2023-02-21T18:42:48.502Z,48.28
2023-02-21T18:45:18.423Z,48.92
2023-02-21T18:50:15.148Z,45.35
2023-02-21T18:52:43.634Z,46.83
2023-02-21T18:55:13.018Z,50.15
2023-02-21T18:57:41.388Z,40.78
2023-02-21T19:00:11.227Z,43.53
2023-02-21T19:05:11.186Z,37.08
2023-02-21T19:07:39.625Z,39.40
2023-02-21T19:10:09.197Z,39.90
2023-02-21T19:12:37.652Z,35.63
2023-02-21T19:15:07.953Z,40.70
2023-02-21T19:17:36.527Z,44.10
2023-02-21T19:20:07.619Z,44.40
2023-02-21T19:22:36.197Z,45.90
2023-02-21T19:25:05.159Z,46.17
2023-02-21T19:27:33.605Z,46.53
2023-02-21T19:30:02.079Z,42.03
2023-02-21T19:32:30.534Z,42.00
2023-02-21T19:34:59.080Z,41.33
2023-02-21T19:37:29.462Z,42.67
2023-02-21T19:39:58.397Z,45.85
2023-02-21T19:42:27.130Z,39.75
2023-02-21T19:44:56.245Z,39.53
2023-02-21T19:47:24.695Z,35.85
2023-02-21T19:49:53.140Z,36.38
2023-02-21T19:52:21.905Z,36.90
2023-02-21T19:54:51.695Z,35.78
2023-02-21T19:57:20.080Z,30.27
2023-02-21T19:59:48.517Z,28.08
2023-02-21T20:02:17.471Z,30.27
2023-02-21T20:04:46.044Z,31.63
2023-02-21T20:07:15.117Z,32.28
2023-02-21T20:09:45.491Z,30.13
2023-02-21T20:12:16.626Z,30.48
2023-02-21T20:14:48.079Z,32.10
2023-02-21T20:17:18.235Z,28.90
2023-02-21T20:19:47.382Z,32.00
2023-02-21T20:22:15.805Z,29.10
2023-02-21T20:24:45.696Z,35.03
2023-02-21T20:29:44.524Z,29.08
2023-02-21T20:32:15.668Z,27.20
2023-02-21T20:34:44.556Z,26.40
2023-02-21T20:37:14.391Z,28.27
2023-02-21T20:42:11.582Z,33.47
2023-02-21T20:44:43.188Z,39.45
2023-02-21T20:47:12.165Z,35.53
2023-02-21T20:49:43.647Z,32.73
2023-02-21T20:52:13.815Z,33.90
2023-02-21T20:54:43.898Z,32.00
2023-02-21T20:57:13.547Z,39.67
2023-02-21T20:59:43.515Z,35.88
2023-02-21T21:02:12.065Z,30.45
2023-02-21T21:04:43.104Z,25.00
2023-02-21T21:07:14.640Z,21.98
2023-02-21T21:09:44.642Z,17.17
2023-02-21T21:12:17.182Z,13.55
2023-02-21T21:14:49.263Z,14.98
2023-02-21T21:17:19.995Z,17.20
2023-02-21T21:19:50.098Z,16.80
2023-02-21T21:22:21.990Z,15.48
2023-02-21T21:24:52.445Z,14.18
2023-02-21T21:27:22.069Z,14.98
2023-02-21T21:29:54.134Z,12.32
2023-02-21T21:32:25.907Z,13.68
2023-02-21T21:34:56.920Z,17.23
2023-02-21T21:37:28.053Z,17.48
2023-02-21T21:39:57.585Z,17.13
2023-02-21T21:42:30.846Z,17.05
2023-02-21T21:45:03.400Z,22.92
2023-02-21T21:47:34.289Z,25.27
2023-02-21T21:50:06.733Z,23.33
2023-02-21T21:52:35.898Z,20.95
2023-02-21T21:55:09.780Z,27.50
2023-02-21T21:57:43.956Z,25.40
2023-02-21T22:00:31.418Z,26.85
2023-02-21T22:03:02.692Z,19.25
2023-02-21T22:05:37.654Z,14.40
2023-02-21T22:08:08.054Z,15.80
2023-02-21T22:10:41.106Z,12.05
2023-02-21T22:13:25.485Z,12.90
2023-02-21T22:15:58.764Z,12.05
2023-02-21T22:18:42.771Z,13.98
2023-02-21T22:21:14.604Z,13.45
2023-02-21T22:23:44.246Z,11.43
2023-02-21T22:26:22.868Z,10.55
2023-02-21T22:29:00.019Z,13.70
2023-02-21T22:31:36.161Z,13.32
2023-02-21T22:34:23.742Z,11.13
2023-02-21T22:36:57.533Z,12.82
2023-02-21T22:39:32.051Z,12.07
2023-02-21T22:42:11.735Z,11.25
2023-02-21T22:44:47.157Z,11.23
2023-02-21T22:50:16.308Z,17.35
2023-02-21T22:52:51.634Z,16.88
2023-02-21T22:55:25.475Z,15.32
2023-02-21T22:58:05.773Z,14.27
2023-02-21T23:00:44.854Z,13.85
2023-02-21T23:03:20.155Z,18.63
2023-02-21T23:05:51.650Z,14.55
2023-02-21T23:08:34.006Z,14.10
2023-02-21T23:11:11.376Z,14.20
2023-02-21T23:13:56.806Z,17.70
2023-02-21T23:16:46.239Z,17.35
2023-02-21T23:19:30.815Z,19.05
2023-02-21T23:22:02.835Z,23.60
2023-02-21T23:24:46.023Z,22.65
2023-02-21T23:27:23.640Z,27.48
2023-02-21T23:29:55.840Z,27.38
2023-02-21T23:32:31.334Z,28.08
2023-02-21T23:35:08.002Z,31.40
2023-02-21T23:37:59.200Z,34.15
2023-02-21T23:40:48.626Z,14.18
2023-02-21T23:43:29.873Z,3.63
2023-02-21T23:46:08.889Z,1.77
2023-02-21T23:48:42.238Z,3.40
2023-02-21T23:51:18.015Z,1.85
2023-02-21T23:53:50.865Z,3.05
2023-02-21T23:56:29.133Z,3.05
2023-02-21T23:58:59.798Z,3.75
